createdAt,value
2019-02-27T00:00:04.518Z,6.11
2019-02-27T00:01:02.752Z,6.09
2019-02-27T00:02:02.693Z,6.07
2019-02-27T00:03:02.688Z,6.01
2019-02-27T00:04:03.075Z,5.98
2019-02-27T00:05:02.668Z,5.95
2019-02-27T00:06:02.694Z,5.91
2019-02-27T00:07:02.640Z,5.88
2019-02-27T00:08:02.633Z,5.81
2019-02-27T00:09:02.617Z,5.77
2019-02-27T00:10:05.869Z,5.83
2019-02-27T00:11:02.601Z,5.75
2019-02-27T00:12:02.614Z,5.89
2019-02-27T00:13:02.573Z,5.92
2019-02-27T00:14:02.561Z,5.86
2019-02-27T00:15:05.038Z,6.00
2019-02-27T00:16:02.542Z,6.01
2019-02-27T00:17:02.560Z,6.06
2019-02-27T00:18:02.519Z,6.04
2019-02-27T00:19:02.516Z,6.11
2019-02-27T00:20:05.014Z,6.11
2019-02-27T00:21:02.486Z,6.13
2019-02-27T00:22:02.506Z,6.04
2019-02-27T00:23:02.465Z,6.01
2019-02-27T00:24:02.459Z,6.01
2019-02-27T00:25:03.379Z,6.00
2019-02-27T00:26:02.437Z,6.00
2019-02-27T00:27:02.444Z,6.06
2019-02-27T00:28:02.425Z,6.09
2019-02-27T00:29:02.401Z,6.10
2019-02-27T00:30:04.908Z,5.98
2019-02-27T00:31:02.714Z,6.11
2019-02-27T00:32:02.391Z,6.10
2019-02-27T00:33:02.364Z,6.18
2019-02-27T00:34:02.353Z,6.30
2019-02-27T00:35:06.517Z,6.40
2019-02-27T00:36:02.327Z,6.35
2019-02-27T00:37:02.337Z,6.30
2019-02-27T00:38:02.311Z,6.30
2019-02-27T00:39:02.293Z,6.26
2019-02-27T00:40:05.306Z,6.29
2019-02-27T00:41:02.272Z,6.29
2019-02-27T00:42:02.288Z,6.25
2019-02-27T00:43:02.253Z,6.29
2019-02-27T00:44:02.244Z,6.29
2019-02-27T00:45:02.229Z,6.22
2019-02-27T00:46:02.216Z,6.11
2019-02-27T00:47:02.252Z,6.14
2019-02-27T00:48:02.198Z,6.07
2019-02-27T00:49:02.186Z,6.01
2019-02-27T00:50:05.649Z,5.92
2019-02-27T00:51:02.567Z,5.91
2019-02-27T00:52:02.176Z,5.93
2019-02-27T00:53:02.144Z,5.78
2019-02-27T00:54:02.131Z,5.85
2019-02-27T00:55:04.675Z,6.06
2019-02-27T00:56:02.111Z,6.13
2019-02-27T00:57:02.124Z,6.13
2019-02-27T00:58:02.091Z,5.96
2019-02-27T00:59:02.105Z,5.92
2019-02-27T01:00:06.306Z,5.75
2019-02-27T01:01:03.060Z,5.46
2019-02-27T01:02:02.076Z,5.48
2019-02-27T01:03:02.041Z,5.68
2019-02-27T01:04:02.506Z,5.91
2019-02-27T01:05:02.027Z,6.03
2019-02-27T01:06:02.006Z,6.32
2019-02-27T01:07:02.027Z,6.35
2019-02-27T01:08:01.991Z,6.46
2019-02-27T01:09:03.944Z,6.62
2019-02-27T01:10:01.965Z,6.66
2019-02-27T01:11:01.950Z,6.65
2019-02-27T01:12:01.989Z,6.53
2019-02-27T01:13:01.925Z,6.50
2019-02-27T01:14:03.954Z,6.36
2019-02-27T01:15:01.909Z,6.50
2019-02-27T01:16:01.900Z,6.59
2019-02-27T01:17:01.909Z,6.54
2019-02-27T01:18:01.886Z,6.51
2019-02-27T01:19:02.229Z,6.50
2019-02-27T01:20:01.855Z,6.61
2019-02-27T01:21:01.850Z,6.54
2019-02-27T01:22:01.858Z,6.53
2019-02-27T01:23:01.827Z,6.53
2019-02-27T01:24:01.814Z,6.61
2019-02-27T01:25:01.789Z,6.51
2019-02-27T01:26:01.781Z,6.40
2019-02-27T01:27:04.622Z,6.32
2019-02-27T01:28:01.769Z,6.32
2019-02-27T01:29:01.757Z,6.51
2019-02-27T01:30:01.752Z,6.41
2019-02-27T01:31:01.739Z,6.46
2019-02-27T01:32:01.753Z,6.43
2019-02-27T01:33:03.928Z,6.46
2019-02-27T01:34:01.715Z,6.43
2019-02-27T01:35:01.696Z,6.44
2019-02-27T01:36:01.690Z,6.30
2019-02-27T01:37:01.711Z,6.30
2019-02-27T01:38:05.046Z,6.29
2019-02-27T01:39:01.654Z,6.33
2019-02-27T01:40:01.638Z,6.22
2019-02-27T01:41:01.636Z,6.11
2019-02-27T01:42:01.617Z,5.98
2019-02-27T01:43:05.553Z,5.95
2019-02-27T01:44:01.600Z,5.89
2019-02-27T01:45:01.586Z,5.68
2019-02-27T01:46:01.587Z,5.40
2019-02-27T01:47:02.916Z,5.31
2019-02-27T01:48:01.582Z,5.19
2019-02-27T01:49:01.546Z,5.59
2019-02-27T01:50:01.533Z,5.77
2019-02-27T01:51:01.524Z,5.82
2019-02-27T01:52:02.204Z,5.86
2019-02-27T01:53:01.540Z,5.86
2019-02-27T01:54:01.489Z,5.78
2019-02-27T01:55:01.483Z,5.74
2019-02-27T01:56:01.476Z,5.73
2019-02-27T01:57:02.959Z,5.81
2019-02-27T01:58:01.475Z,5.75
2019-02-27T01:59:01.440Z,5.70
2019-02-27T02:00:01.425Z,5.57
2019-02-27T02:01:01.413Z,5.60
2019-02-27T02:02:03.478Z,5.50
2019-02-27T02:03:01.424Z,5.38
2019-02-27T02:04:01.388Z,5.48
2019-02-27T02:05:01.380Z,5.41
2019-02-27T02:06:01.365Z,5.28
2019-02-27T02:07:01.350Z,5.28
2019-02-27T02:08:01.377Z,5.35
2019-02-27T02:09:01.334Z,5.23
2019-02-27T02:10:01.330Z,5.22
2019-02-27T02:11:02.032Z,5.28
2019-02-27T02:12:01.298Z,5.23
2019-02-27T02:13:01.315Z,5.12
2019-02-27T02:14:01.277Z,5.10
2019-02-27T02:15:01.271Z,5.20
2019-02-27T02:16:01.547Z,5.14
2019-02-27T02:17:01.244Z,5.20
2019-02-27T02:18:01.266Z,5.19
2019-02-27T02:19:01.229Z,5.20
2019-02-27T02:20:01.217Z,5.32
2019-02-27T02:21:01.839Z,5.25
2019-02-27T02:22:01.189Z,5.16
2019-02-27T02:23:01.208Z,5.16
2019-02-27T02:24:01.180Z,5.20
2019-02-27T02:25:01.165Z,5.10
2019-02-27T02:26:01.812Z,5.13
2019-02-27T02:27:01.141Z,5.10
2019-02-27T02:28:01.158Z,5.07
2019-02-27T02:29:01.119Z,5.04
2019-02-27T02:30:01.121Z,4.99
2019-02-27T02:31:05.043Z,4.99
2019-02-27T02:32:02.088Z,4.92
2019-02-27T02:33:01.098Z,4.92
2019-02-27T02:34:05.119Z,4.96
2019-02-27T02:35:02.104Z,4.89
2019-02-27T02:36:01.046Z,4.79
2019-02-27T02:37:02.541Z,4.88
2019-02-27T02:38:01.056Z,4.70
2019-02-27T02:39:01.013Z,4.64
2019-02-27T02:40:01.002Z,4.59
2019-02-27T02:41:00.991Z,4.61
2019-02-27T02:42:00.977Z,4.59
2019-02-27T02:43:03.140Z,4.59
2019-02-27T02:44:00.961Z,4.59
2019-02-27T02:45:00.950Z,4.73
2019-02-27T02:46:00.943Z,4.62
2019-02-27T02:47:00.918Z,4.59
2019-02-27T02:48:00.948Z,4.59
2019-02-27T02:49:06.487Z,4.47
2019-02-27T02:50:01.895Z,4.43
2019-02-27T02:51:00.888Z,4.42
2019-02-27T02:52:04.528Z,4.36
2019-02-27T02:53:00.891Z,4.29
2019-02-27T02:54:02.150Z,4.29
2019-02-27T02:55:00.841Z,4.21
2019-02-27T02:56:00.835Z,4.12
2019-02-27T02:57:01.970Z,4.22
2019-02-27T02:58:00.859Z,4.24
2019-02-27T02:59:00.797Z,4.25
2019-02-27T03:00:01.105Z,4.26
2019-02-27T03:01:00.782Z,4.24
2019-02-27T03:02:00.769Z,4.28
2019-02-27T03:03:01.864Z,4.25
2019-02-27T03:04:00.788Z,4.10
2019-02-27T03:05:00.745Z,4.10
2019-02-27T03:06:00.729Z,4.01
2019-02-27T03:07:00.729Z,3.94
2019-02-27T03:08:00.705Z,3.96
2019-02-27T03:09:00.738Z,3.97
2019-02-27T03:10:06.999Z,3.88
2019-02-27T03:11:01.669Z,3.85
2019-02-27T03:12:00.665Z,3.92
2019-02-27T03:13:05.887Z,3.98
2019-02-27T03:14:01.668Z,4.00
2019-02-27T03:15:00.682Z,3.98
2019-02-27T03:16:04.341Z,3.96
2019-02-27T03:17:01.642Z,3.94
2019-02-27T03:18:00.601Z,3.92
2019-02-27T03:19:04.884Z,3.89
2019-02-27T03:20:00.574Z,4.00
2019-02-27T03:21:00.564Z,4.00
2019-02-27T03:22:03.749Z,4.00
2019-02-27T03:23:00.545Z,3.90
2019-02-27T03:24:00.561Z,3.88
2019-02-27T03:25:04.060Z,3.89
2019-02-27T03:26:00.512Z,3.78
2019-02-27T03:27:00.503Z,3.83
2019-02-27T03:28:04.455Z,3.80
2019-02-27T03:29:00.505Z,3.82
2019-02-27T03:30:00.521Z,3.76
2019-02-27T03:31:00.464Z,3.72
2019-02-27T03:32:01.282Z,3.76
2019-02-27T03:33:00.433Z,3.75
2019-02-27T03:34:07.846Z,3.78
2019-02-27T03:35:01.418Z,3.79
2019-02-27T03:36:03.359Z,3.79
2019-02-27T03:37:00.393Z,3.71
2019-02-27T03:38:00.384Z,3.80
2019-02-27T03:39:00.409Z,3.72
2019-02-27T03:40:00.394Z,3.80
2019-02-27T03:41:00.363Z,3.79
2019-02-27T03:42:00.341Z,3.85
2019-02-27T03:43:00.329Z,3.92
2019-02-27T03:44:00.345Z,3.86
2019-02-27T03:45:00.498Z,4.00
2019-02-27T03:46:03.122Z,3.98
2019-02-27T03:47:01.306Z,4.03
2019-02-27T03:48:00.273Z,4.14
2019-02-27T03:49:03.587Z,4.14
2019-02-27T03:50:00.500Z,4.19
2019-02-27T03:51:00.244Z,4.18
2019-02-27T03:52:01.278Z,4.24
2019-02-27T03:53:00.221Z,4.34
2019-02-27T03:54:00.232Z,4.34
2019-02-27T03:55:00.271Z,4.34
2019-02-27T03:56:00.190Z,4.33
2019-02-27T03:57:00.189Z,4.39
2019-02-27T03:58:00.165Z,4.28
2019-02-27T03:59:05.518Z,4.29
2019-02-27T04:00:01.159Z,4.32
2019-02-27T04:01:00.138Z,4.14
2019-02-27T04:02:05.737Z,4.33
2019-02-27T04:03:01.111Z,4.28
2019-02-27T04:04:00.145Z,4.36
2019-02-27T04:05:05.312Z,4.54
2019-02-27T04:06:01.085Z,4.62
2019-02-27T04:07:00.071Z,4.70
2019-02-27T04:08:00.057Z,4.77
2019-02-27T04:09:00.079Z,4.77
2019-02-27T04:10:00.038Z,4.70
2019-02-27T04:11:05.610Z,4.67
2019-02-27T04:12:01.016Z,4.65
2019-02-27T04:13:00.022Z,4.76
2019-02-27T04:14:04.929Z,4.70
2019-02-27T04:15:00.983Z,4.61
2019-02-27T04:15:59.975Z,4.61
2019-02-27T04:17:05.484Z,4.57
2019-02-27T04:18:00.952Z,4.52
2019-02-27T04:19:04.532Z,4.52
2019-02-27T04:19:59.936Z,4.40
2019-02-27T04:20:59.917Z,4.42
2019-02-27T04:22:01.144Z,4.51
2019-02-27T04:22:59.900Z,4.32
2019-02-27T04:23:59.931Z,4.21
2019-02-27T04:24:59.876Z,4.14
2019-02-27T04:26:05.359Z,3.90
2019-02-27T04:27:00.851Z,3.79
2019-02-27T04:27:59.856Z,3.88
2019-02-27T04:29:04.067Z,3.92
2019-02-27T04:30:01.366Z,4.03
2019-02-27T04:30:59.865Z,4.22
2019-02-27T04:31:59.803Z,4.29
2019-02-27T04:32:59.789Z,4.22
2019-02-27T04:34:00.923Z,4.29
2019-02-27T04:34:59.793Z,4.26
2019-02-27T04:35:59.758Z,4.25
2019-02-27T04:36:59.747Z,4.36
2019-02-27T04:37:59.738Z,4.25
2019-02-27T04:39:00.067Z,4.21
2019-02-27T04:39:59.739Z,4.19
2019-02-27T04:40:59.699Z,4.34
2019-02-27T04:41:59.697Z,4.34
2019-02-27T04:42:59.967Z,4.40
2019-02-27T04:43:59.682Z,4.26
2019-02-27T04:44:59.681Z,4.26
2019-02-27T04:45:59.648Z,4.21
2019-02-27T04:46:59.636Z,4.08
2019-02-27T04:47:59.623Z,4.10
2019-02-27T04:49:03.891Z,4.06
2019-02-27T04:50:00.630Z,3.98
2019-02-27T04:50:59.594Z,4.07
2019-02-27T04:51:59.587Z,4.00
2019-02-27T04:52:59.576Z,3.89
2019-02-27T04:53:59.568Z,3.96
2019-02-27T04:54:59.581Z,4.00
2019-02-27T04:55:59.539Z,4.15
2019-02-27T04:56:59.535Z,4.12
2019-02-27T04:57:59.521Z,3.97
2019-02-27T04:58:59.509Z,3.98
2019-02-27T04:59:59.520Z,3.88
2019-02-27T05:00:59.822Z,3.86
2019-02-27T05:01:59.477Z,3.83
2019-02-27T05:02:59.465Z,3.96
2019-02-27T05:04:01.408Z,4.00
2019-02-27T05:04:59.468Z,3.97
2019-02-27T05:05:59.435Z,3.96
2019-02-27T05:06:59.423Z,3.94
2019-02-27T05:07:59.419Z,3.94
2019-02-27T05:09:00.233Z,3.88
2019-02-27T05:09:59.419Z,4.01
2019-02-27T05:10:59.379Z,3.86
2019-02-27T05:11:59.384Z,3.83
2019-02-27T05:12:59.357Z,3.80
2019-02-27T05:13:59.349Z,3.80
2019-02-27T05:15:00.858Z,3.75
2019-02-27T05:15:59.330Z,3.85
2019-02-27T05:16:59.706Z,3.76
2019-02-27T05:17:59.311Z,3.80
2019-02-27T05:19:03.574Z,3.67
2019-02-27T05:19:59.311Z,3.65
2019-02-27T05:20:59.274Z,3.80
2019-02-27T05:22:01.230Z,3.76
2019-02-27T05:23:00.358Z,3.78
2019-02-27T05:23:59.250Z,3.80
2019-02-27T05:24:59.261Z,3.75
2019-02-27T05:25:59.220Z,3.76
2019-02-27T05:27:00.733Z,3.75
2019-02-27T05:28:01.423Z,3.72
2019-02-27T05:28:59.187Z,3.57
2019-02-27T05:30:00.078Z,3.61
2019-02-27T05:30:59.167Z,3.43
2019-02-27T05:31:59.151Z,3.24
2019-02-27T05:33:02.236Z,3.24
2019-02-27T05:33:59.136Z,3.09
2019-02-27T05:34:59.143Z,3.00
2019-02-27T05:35:59.113Z,3.03
2019-02-27T05:36:59.109Z,3.00
2019-02-27T05:37:59.089Z,2.88
2019-02-27T05:38:59.082Z,2.82
2019-02-27T05:39:59.278Z,2.82
2019-02-27T05:41:00.139Z,2.91
2019-02-27T05:42:00.865Z,3.02
2019-02-27T05:42:59.039Z,2.91
2019-02-27T05:43:59.028Z,2.84
2019-02-27T05:44:59.029Z,2.87
2019-02-27T05:46:02.763Z,2.84
2019-02-27T05:46:58.991Z,2.87
2019-02-27T05:47:58.984Z,2.87
2019-02-27T05:48:58.978Z,2.94
2019-02-27T05:50:00.460Z,2.98
2019-02-27T05:50:58.977Z,2.95
2019-02-27T05:51:58.940Z,3.09
2019-02-27T05:52:58.934Z,3.12
2019-02-27T05:53:59.197Z,3.12
2019-02-27T05:54:58.918Z,3.00
2019-02-27T05:55:58.926Z,3.10
2019-02-27T05:56:58.886Z,3.13
2019-02-27T05:57:58.880Z,3.23
2019-02-27T05:58:58.865Z,3.20
2019-02-27T06:00:02.306Z,3.21
2019-02-27T06:00:58.872Z,3.24
2019-02-27T06:01:58.850Z,3.20
2019-02-27T06:02:58.823Z,3.23
2019-02-27T06:03:58.820Z,3.10
2019-02-27T06:04:59.147Z,3.10
2019-02-27T06:05:58.815Z,3.18
2019-02-27T06:06:59.099Z,3.10
2019-02-27T06:08:02.023Z,3.27
2019-02-27T06:08:58.768Z,3.15
2019-02-27T06:09:58.811Z,3.09
2019-02-27T06:10:58.763Z,3.24
2019-02-27T06:11:58.728Z,3.31
2019-02-27T06:12:58.716Z,3.49
2019-02-27T06:13:58.712Z,3.43
2019-02-27T06:14:58.696Z,3.28
2019-02-27T06:16:02.944Z,3.25
2019-02-27T06:16:58.673Z,3.16
2019-02-27T06:17:58.660Z,2.98
2019-02-27T06:18:58.654Z,2.95
2019-02-27T06:19:58.641Z,2.88
2019-02-27T06:20:58.657Z,2.87
2019-02-27T06:21:58.617Z,2.89
2019-02-27T06:22:58.621Z,2.98
2019-02-27T06:23:58.602Z,3.20
2019-02-27T06:24:58.585Z,3.42
2019-02-27T06:25:59.450Z,3.44
2019-02-27T06:26:58.564Z,3.53
2019-02-27T06:27:58.554Z,3.46
2019-02-27T06:28:58.549Z,3.40
2019-02-27T06:29:59.791Z,3.30
2019-02-27T06:30:58.545Z,3.20
2019-02-27T06:31:58.528Z,3.16
2019-02-27T06:32:58.501Z,3.06
2019-02-27T06:33:59.082Z,3.03
2019-02-27T06:34:59.445Z,3.06
2019-02-27T06:35:58.496Z,3.15
2019-02-27T06:36:58.459Z,3.65
2019-02-27T06:37:58.451Z,4.22
2019-02-27T06:39:00.335Z,4.58
2019-02-27T06:39:58.427Z,5.01
2019-02-27T06:40:59.426Z,5.20
2019-02-27T06:41:58.409Z,5.38
2019-02-27T06:42:58.400Z,5.71
2019-02-27T06:43:58.959Z,5.78
2019-02-27T06:44:58.373Z,6.00
2019-02-27T06:45:58.388Z,6.11
2019-02-27T06:46:58.351Z,6.29
2019-02-27T06:47:58.346Z,6.29
2019-02-27T06:48:58.329Z,6.32
2019-02-27T06:49:58.321Z,6.36
2019-02-27T06:51:00.794Z,6.22
2019-02-27T06:51:58.295Z,6.29
2019-02-27T06:52:58.291Z,6.47
2019-02-27T06:53:58.279Z,6.41
2019-02-27T06:54:58.278Z,6.41
2019-02-27T06:56:02.746Z,6.46
2019-02-27T06:56:59.248Z,6.51
2019-02-27T06:57:58.235Z,6.56
2019-02-27T06:58:58.224Z,6.72
2019-02-27T07:00:02.062Z,6.81
2019-02-27T07:00:58.225Z,6.83
2019-02-27T07:01:58.189Z,6.95
2019-02-27T07:02:58.185Z,6.95
2019-02-27T07:03:58.193Z,7.01
2019-02-27T07:04:58.159Z,7.04
2019-02-27T07:05:58.195Z,7.08
2019-02-27T07:06:58.136Z,7.04
2019-02-27T07:07:58.132Z,7.13
2019-02-27T07:08:58.114Z,7.15
2019-02-27T07:09:58.108Z,7.13
2019-02-27T07:11:09.917Z,7.08
2019-02-27T07:11:59.108Z,7.07
2019-02-27T07:12:58.074Z,7.08
2019-02-27T07:13:58.065Z,7.16
2019-02-27T07:14:58.066Z,7.20
2019-02-27T07:15:58.044Z,7.23
2019-02-27T07:16:58.077Z,7.23
2019-02-27T07:17:58.017Z,7.20
2019-02-27T07:18:58.009Z,7.13
2019-02-27T07:19:58.017Z,7.08
2019-02-27T07:20:58.496Z,7.09
2019-02-27T07:21:58.005Z,7.09
2019-02-27T07:22:57.968Z,7.05
2019-02-27T07:23:58.694Z,6.95
2019-02-27T07:24:57.944Z,6.98
2019-02-27T07:25:57.950Z,6.80
2019-02-27T07:26:57.953Z,7.16
2019-02-27T07:27:57.919Z,7.52
2019-02-27T07:28:57.901Z,8.32
2019-02-27T07:29:57.893Z,9.45
2019-02-27T07:30:57.881Z,10.25
2019-02-27T07:31:57.894Z,10.77
2019-02-27T07:32:57.856Z,11.10
2019-02-27T07:33:57.844Z,11.52
2019-02-27T07:34:57.839Z,11.47
2019-02-27T07:35:57.824Z,11.56
2019-02-27T07:36:57.842Z,11.80
2019-02-27T07:37:57.805Z,12.77
2019-02-27T07:38:58.309Z,13.63
2019-02-27T07:39:57.786Z,14.19
2019-02-27T07:40:57.768Z,13.74
2019-02-27T07:41:57.808Z,13.59
2019-02-27T07:42:57.759Z,13.58
2019-02-27T07:43:57.745Z,13.79
2019-02-27T07:44:57.728Z,14.16
2019-02-27T07:45:57.715Z,13.94
2019-02-27T07:46:58.113Z,13.96
2019-02-27T07:47:57.700Z,14.69
2019-02-27T07:48:57.685Z,14.42
2019-02-27T07:49:57.672Z,14.37
2019-02-27T07:50:57.664Z,14.28
2019-02-27T07:51:58.053Z,14.31
2019-02-27T07:52:57.644Z,14.44
2019-02-27T07:53:57.633Z,14.16
2019-02-27T07:54:57.635Z,14.47
2019-02-27T07:55:57.616Z,14.65
2019-02-27T07:56:57.635Z,14.71
2019-02-27T07:57:58.805Z,14.39
2019-02-27T07:58:57.576Z,14.56
2019-02-27T07:59:57.568Z,14.47
2019-02-27T08:00:57.561Z,14.28
2019-02-27T08:02:02.319Z,14.09
2019-02-27T08:02:58.533Z,14.07
2019-02-27T08:03:57.525Z,14.37
2019-02-27T08:04:57.529Z,14.12
2019-02-27T08:05:59.815Z,14.29
2019-02-27T08:06:57.523Z,14.12
2019-02-27T08:07:57.487Z,14.56
2019-02-27T08:08:57.848Z,14.86
2019-02-27T08:09:57.460Z,14.81
2019-02-27T08:10:57.452Z,14.67
2019-02-27T08:11:57.477Z,14.60
2019-02-27T08:12:57.467Z,14.64
2019-02-27T08:13:57.487Z,14.60
2019-02-27T08:14:57.556Z,14.43
2019-02-27T08:15:58.104Z,14.43
2019-02-27T08:16:58.162Z,14.83
2019-02-27T08:17:58.541Z,15.02
2019-02-27T08:18:57.366Z,15.48
2019-02-27T08:19:57.351Z,15.88
2019-02-27T08:20:57.341Z,15.66
2019-02-27T08:21:57.372Z,15.79
2019-02-27T08:22:57.918Z,15.85
2019-02-27T08:23:57.316Z,15.78
2019-02-27T08:24:57.307Z,15.63
2019-02-27T08:25:57.321Z,15.74
2019-02-27T08:26:57.302Z,15.70
2019-02-27T08:27:57.271Z,15.64
2019-02-27T08:28:57.258Z,15.64
2019-02-27T08:29:57.242Z,15.93
2019-02-27T08:30:57.232Z,15.96
2019-02-27T08:32:00.767Z,16.15
2019-02-27T08:32:57.214Z,16.99
2019-02-27T08:33:57.210Z,17.82
2019-02-27T08:34:57.192Z,17.84
2019-02-27T08:35:57.186Z,17.85
2019-02-27T08:36:57.193Z,17.87
2019-02-27T08:38:02.652Z,17.55
2019-02-27T08:38:58.151Z,17.79
2019-02-27T08:39:57.136Z,17.54
2019-02-27T08:40:58.352Z,17.73
2019-02-27T08:41:57.153Z,18.44
2019-02-27T08:42:57.107Z,19.46
2019-02-27T08:43:57.108Z,20.53
2019-02-27T08:44:57.085Z,21.23
2019-02-27T08:45:57.074Z,21.21
2019-02-27T08:46:57.096Z,21.46
2019-02-27T08:47:57.075Z,20.99
2019-02-27T08:48:57.042Z,20.30
2019-02-27T08:49:58.054Z,19.72
2019-02-27T08:50:57.030Z,19.61
2019-02-27T08:51:57.014Z,18.99
2019-02-27T08:52:57.896Z,18.79
2019-02-27T08:54:57.968Z,17.92
2019-02-27T08:55:56.959Z,17.66
2019-02-27T08:56:57.507Z,17.55
2019-02-27T08:57:57.197Z,18.10
2019-02-27T08:58:56.930Z,18.61
2019-02-27T08:59:56.917Z,18.83
2019-02-27T09:00:56.911Z,18.09
2019-02-27T09:01:56.894Z,18.33
2019-02-27T09:02:56.948Z,18.46
2019-02-27T09:03:56.873Z,18.28
2019-02-27T09:04:56.870Z,17.97
2019-02-27T09:05:56.848Z,17.84
2019-02-27T09:07:02.132Z,17.87
2019-02-27T09:07:57.933Z,18.15
2019-02-27T09:08:56.819Z,18.73
2019-02-27T09:09:56.815Z,18.92
2019-02-27T09:10:56.797Z,18.95
2019-02-27T09:11:56.784Z,19.13
2019-02-27T09:13:04.803Z,19.38
2019-02-27T09:13:57.776Z,18.82
2019-02-27T09:14:56.765Z,18.40
2019-02-27T09:15:56.755Z,18.22
2019-02-27T09:16:56.735Z,18.18
2019-02-27T09:17:59.261Z,17.59
2019-02-27T09:18:56.710Z,17.92
2019-02-27T09:19:56.705Z,18.39
2019-02-27T09:20:56.692Z,18.87
2019-02-27T09:21:56.679Z,18.87
2019-02-27T09:22:56.695Z,19.58
2019-02-27T09:23:56.653Z,20.53
2019-02-27T09:24:57.212Z,20.62
2019-02-27T09:25:57.436Z,21.44
2019-02-27T09:26:56.622Z,21.69
2019-02-27T09:27:56.642Z,22.07
2019-02-27T09:28:56.600Z,21.78
2019-02-27T09:29:56.594Z,21.56
2019-02-27T09:30:56.586Z,20.95
2019-02-27T09:31:56.570Z,20.53
2019-02-27T09:32:56.596Z,20.43
2019-02-27T09:33:56.549Z,20.64
2019-02-27T09:34:57.079Z,21.51
2019-02-27T09:35:56.533Z,21.38
2019-02-27T09:36:56.517Z,20.84
2019-02-27T09:37:56.562Z,20.59
2019-02-27T09:38:57.638Z,20.50
2019-02-27T09:39:56.480Z,20.12
2019-02-27T09:40:56.472Z,20.54
2019-02-27T09:41:56.461Z,20.56
2019-02-27T09:42:56.475Z,20.81
2019-02-27T09:43:58.580Z,21.05
2019-02-27T09:44:56.436Z,20.35
2019-02-27T09:45:56.421Z,19.76
2019-02-27T09:46:56.409Z,20.03
2019-02-27T09:47:59.583Z,19.84
2019-02-27T09:48:56.405Z,19.58
2019-02-27T09:49:56.382Z,19.13
2019-02-27T09:50:56.998Z,18.64
2019-02-27T09:51:57.000Z,18.21
2019-02-27T09:52:56.368Z,18.46
2019-02-27T09:53:56.338Z,17.64
2019-02-27T09:54:56.322Z,17.74
2019-02-27T09:55:56.309Z,17.33
2019-02-27T09:56:56.306Z,17.32
2019-02-27T09:57:56.321Z,17.26
2019-02-27T09:58:56.287Z,17.20
2019-02-27T09:59:56.338Z,17.41
2019-02-27T10:00:59.137Z,17.35
2019-02-27T10:01:57.261Z,17.13
2019-02-27T10:02:58.079Z,17.50
2019-02-27T10:03:56.234Z,17.23
2019-02-27T10:05:01.609Z,17.08
2019-02-27T10:05:57.204Z,17.08
2019-02-27T10:06:56.209Z,16.99
2019-02-27T10:07:57.500Z,16.90
2019-02-27T10:08:56.415Z,16.92
2019-02-27T10:09:56.164Z,16.83
2019-02-27T10:10:56.162Z,16.90
2019-02-27T10:11:56.141Z,17.08
2019-02-27T10:12:56.159Z,17.15
2019-02-27T10:13:56.119Z,17.11
2019-02-27T10:14:56.122Z,17.17
2019-02-27T10:16:00.572Z,17.07
2019-02-27T10:16:57.087Z,17.23
2019-02-27T10:17:56.109Z,17.13
2019-02-27T10:18:56.067Z,16.70
2019-02-27T10:20:01.266Z,16.52
2019-02-27T10:20:57.046Z,16.63
2019-02-27T10:21:56.029Z,16.56
2019-02-27T10:22:56.043Z,16.27
2019-02-27T10:23:56.009Z,16.07
2019-02-27T10:24:56.000Z,16.23
2019-02-27T10:25:55.988Z,16.31
2019-02-27T10:26:55.972Z,16.34
2019-02-27T10:27:56.002Z,16.16
2019-02-27T10:28:55.958Z,16.07
2019-02-27T10:29:55.951Z,15.97
2019-02-27T10:30:55.936Z,15.86
2019-02-27T10:31:58.309Z,15.78
2019-02-27T10:32:55.979Z,15.84
2019-02-27T10:33:55.913Z,15.94
2019-02-27T10:34:55.890Z,15.82
2019-02-27T10:35:55.876Z,15.85
2019-02-27T10:36:55.886Z,15.85
2019-02-27T10:37:55.932Z,15.74
2019-02-27T10:38:55.869Z,15.89
2019-02-27T10:39:55.837Z,15.82
2019-02-27T10:40:55.824Z,15.78
2019-02-27T10:41:55.813Z,15.78
2019-02-27T10:42:55.812Z,15.76
2019-02-27T10:43:56.665Z,15.74
2019-02-27T10:44:55.783Z,15.76
2019-02-27T10:45:55.780Z,15.81
2019-02-27T10:46:59.494Z,15.85
2019-02-27T10:47:55.748Z,15.88
2019-02-27T10:48:55.772Z,15.84
2019-02-27T10:49:55.724Z,15.84
2019-02-27T10:50:55.716Z,15.74
2019-02-27T10:51:55.708Z,15.64
2019-02-27T10:52:55.698Z,15.70
2019-02-27T10:53:55.712Z,15.63
2019-02-27T10:54:55.673Z,15.60
2019-02-27T10:55:56.146Z,15.61
2019-02-27T10:56:56.364Z,15.52
2019-02-27T10:57:55.646Z,15.57
2019-02-27T10:58:55.657Z,15.63
2019-02-27T10:59:55.616Z,15.60
2019-02-27T11:00:58.120Z,15.61
2019-02-27T11:01:56.598Z,15.67
2019-02-27T11:02:55.587Z,15.81
2019-02-27T11:03:55.607Z,15.82
2019-02-27T11:04:55.569Z,15.79
2019-02-27T11:05:55.702Z,15.79
2019-02-27T11:06:55.545Z,15.84
2019-02-27T11:07:55.543Z,15.89
2019-02-27T11:08:55.549Z,15.94
2019-02-27T11:09:55.511Z,15.96
2019-02-27T11:10:55.499Z,15.96
2019-02-27T11:11:55.492Z,15.94
2019-02-27T11:12:55.493Z,15.99
2019-02-27T11:13:55.497Z,16.06
2019-02-27T11:14:55.458Z,16.07
2019-02-27T11:15:55.452Z,16.03
2019-02-27T11:16:55.435Z,16.07
2019-02-27T11:17:55.421Z,16.04
2019-02-27T11:18:55.442Z,16.04
2019-02-27T11:19:55.405Z,16.01
2019-02-27T11:20:58.232Z,16.16
2019-02-27T11:21:58.395Z,16.30
2019-02-27T11:22:55.370Z,16.34
2019-02-27T11:23:55.384Z,16.35
2019-02-27T11:24:55.348Z,16.38
2019-02-27T11:25:56.971Z,16.38
2019-02-27T11:26:56.922Z,16.38
2019-02-27T11:27:55.317Z,16.34
2019-02-27T11:28:55.330Z,16.34
2019-02-27T11:29:59.607Z,16.33
2019-02-27T11:30:56.285Z,16.31
2019-02-27T11:31:55.280Z,16.30
2019-02-27T11:32:57.815Z,16.31
2019-02-27T11:33:55.274Z,16.42
2019-02-27T11:34:55.243Z,16.48
2019-02-27T11:35:55.240Z,16.42
2019-02-27T11:36:55.219Z,16.58
2019-02-27T11:37:55.213Z,16.58
2019-02-27T11:38:56.678Z,16.70
2019-02-27T11:39:55.190Z,16.73
2019-02-27T11:40:55.172Z,16.80
2019-02-27T11:41:55.160Z,16.77
2019-02-27T11:42:55.158Z,16.88
2019-02-27T11:43:55.164Z,16.81
2019-02-27T11:44:55.128Z,16.90
2019-02-27T11:45:57.532Z,16.81
2019-02-27T11:46:58.905Z,16.75
2019-02-27T11:47:55.099Z,16.81
2019-02-27T11:48:57.039Z,16.88
2019-02-27T11:49:55.072Z,16.88
2019-02-27T11:50:55.071Z,16.88
2019-02-27T11:51:56.974Z,16.89
2019-02-27T11:52:55.050Z,16.88
2019-02-27T11:53:55.057Z,16.88
2019-02-27T11:54:55.051Z,16.92
2019-02-27T11:55:55.015Z,16.88
2019-02-27T11:56:56.910Z,16.85
2019-02-27T11:57:54.991Z,16.98
2019-02-27T11:58:54.979Z,16.98
2019-02-27T11:59:54.999Z,16.98
2019-02-27T12:00:54.970Z,16.95
2019-02-27T12:01:56.168Z,16.99
2019-02-27T12:02:54.943Z,17.08
2019-02-27T12:03:54.927Z,17.10
2019-02-27T12:04:56.638Z,17.03
2019-02-27T12:05:54.911Z,17.00
2019-02-27T12:06:54.901Z,17.07
2019-02-27T12:07:54.883Z,17.13
2019-02-27T12:08:59.552Z,17.17
2019-02-27T12:09:55.887Z,17.13
2019-02-27T12:10:54.848Z,17.11
2019-02-27T12:11:54.837Z,17.11
2019-02-27T12:12:59.728Z,17.17
2019-02-27T12:13:55.817Z,17.30
2019-02-27T12:14:54.842Z,17.30
2019-02-27T12:15:54.798Z,17.44
2019-02-27T12:16:54.786Z,17.47
2019-02-27T12:17:59.720Z,17.47
2019-02-27T12:18:55.763Z,17.47
2019-02-27T12:19:54.780Z,17.55
2019-02-27T12:20:54.740Z,17.55
2019-02-27T12:21:59.559Z,17.69
2019-02-27T12:22:55.727Z,17.78
2019-02-27T12:23:54.714Z,17.94
2019-02-27T12:24:54.732Z,18.17
2019-02-27T12:25:54.695Z,18.15
2019-02-27T12:26:54.686Z,18.13
2019-02-27T12:27:54.670Z,18.22
2019-02-27T12:28:54.658Z,18.33
2019-02-27T12:29:54.676Z,18.40
2019-02-27T12:30:54.638Z,18.46
2019-02-27T12:31:54.623Z,18.65
2019-02-27T12:32:56.736Z,18.91
2019-02-27T12:33:54.601Z,18.95
2019-02-27T12:34:54.616Z,19.10
2019-02-27T12:35:54.593Z,19.06
2019-02-27T12:36:54.574Z,19.31
2019-02-27T12:37:54.558Z,19.39
2019-02-27T12:38:54.547Z,19.36
2019-02-27T12:39:54.565Z,19.68
2019-02-27T12:40:58.283Z,20.00
2019-02-27T12:41:54.524Z,20.35
2019-02-27T12:42:54.511Z,20.71
2019-02-27T12:43:54.495Z,20.46
2019-02-27T12:44:54.697Z,20.49
2019-02-27T12:45:54.471Z,20.54
2019-02-27T12:46:54.471Z,20.62
2019-02-27T12:47:54.459Z,20.50
2019-02-27T12:48:54.443Z,20.79
2019-02-27T12:49:54.950Z,21.36
2019-02-27T12:50:54.418Z,21.36
2019-02-27T12:51:54.409Z,21.29
2019-02-27T12:52:54.397Z,21.63
2019-02-27T12:53:55.182Z,21.85
2019-02-27T12:54:54.415Z,22.14
2019-02-27T12:55:54.371Z,22.67
2019-02-27T12:56:54.352Z,22.74
2019-02-27T12:57:54.361Z,22.71
2019-02-27T12:58:58.289Z,22.09
2019-02-27T12:59:54.327Z,22.29
2019-02-27T13:00:54.346Z,22.60
2019-02-27T13:01:54.298Z,23.04
2019-02-27T13:02:54.292Z,23.49
2019-02-27T13:03:54.335Z,23.72
2019-02-27T13:04:54.281Z,23.80
2019-02-27T13:05:54.288Z,24.12
2019-02-27T13:06:54.258Z,24.04
2019-02-27T13:07:54.249Z,24.34